Terminal Aerodrome Forecast
Issued by NWS Mt. Holly, NJ

Home | Current Version | Previous Version | Text Only | Print | Product List | Glossary On
Versions: 1 2 3 4 5 6 7 8 9 10 11 12 13 14 15 16 17 18 19
000
FTUS41 KPHI 301300 AAA
TAFILG
TAF AMD
KILG 301326Z 3013/3112 30012G18KT P6SM SCT020 OVC050
      TEMPO 3013/3015 4SM -SN OVC035
     FM301500 31016G26KT P6SM BKN035
     FM302200 31021G37KT P6SM SCT030
     FM310800 31017G31KT P6SM SKC=

USA.gov is the U.S. government's official web portal to all federal, state and local government web resources and services.